<?xml version='1.0' encoding='UTF-8'?><gpx version="1.1" creator="JPX - https://github.com/jenetics/jpx" xmlns="http://www.topografix.com/GPX/1/1"><trk><trkseg><trkpt lat="41.974211493546115" lon="12.160009481024145"><ele>127.0</ele><time>2026-04-11T09:05:17.999Z</time></trkpt><trkpt lat="41.97428187922284" lon="12.1600085936622"><ele>127.0</ele><time>2026-04-11T09:05:24.999Z</time></trkpt><trkpt lat="41.974334549141524" lon="12.16005932714158"><ele>127.0</ele><time>2026-04-11T09:05:29.999Z</time></trkpt><trkpt lat="41.97438482165483" lon="12.160134038292874"><ele>127.0</ele><time>2026-04-11T09:05:34.999Z</time></trkpt><trkpt lat="41.97443533039228" lon="12.160185776537599"><ele>127.0</ele><time>2026-04-11T09:05:39.999Z</time></trkpt><trkpt lat="41.97442465336327" lon="12.160102193772042"><ele>127.0</ele><time>2026-04-11T09:05:43.999Z</time></trkpt><trkpt lat="41.97447588797936" lon="12.160044186462187"><ele>127.0</ele><time>2026-04-11T09:05:48.999Z</time></trkpt><trkpt lat="41.97449091617144" lon="12.159946605788154"><ele>126.14285714285714</ele><time>2026-04-11T09:05:59.999Z</time></trkpt><trkpt lat="41.97450994568221" lon="12.159850578897922"><ele>125.28571428571428</ele><time>2026-04-11T09:06:05.999Z</time></trkpt><trkpt lat="41.97453108292698" lon="12.159753499005465"><ele>124.42857142857142</ele><time>2026-04-11T09:06:10.999Z</time></trkpt><trkpt lat="41.974573647539174" lon="12.15967405880842"><ele>123.57142857142857</ele><time>2026-04-11T09:06:15.999Z</time></trkpt><trkpt lat="41.974635629704956" lon="12.159637045578139"><ele>122.7142857142857</ele><time>2026-04-11T09:06:20.999Z</time></trkpt><trkpt lat="41.9747004159641" lon="12.159615323537313"><ele>121.85714285714285</ele><time>2026-04-11T09:06:25.999Z</time></trkpt><trkpt lat="41.97474298345628" lon="12.159547000327878"><ele>121.0</ele><time>2026-04-11T09:06:30.999Z</time></trkpt><trkpt lat="41.97476468734277" lon="12.159452166699598"><ele>121.0</ele><time>2026-04-11T09:06:35.999Z</time></trkpt><trkpt lat="41.97478546574811" lon="12.159356087572718"><ele>120.99999999999999</ele><time>2026-04-11T09:06:40.999Z</time></trkpt><trkpt lat="41.974822216300296" lon="12.159266049235384"><ele>121.0</ele><time>2026-04-11T09:06:45.999Z</time></trkpt><trkpt lat="41.97482732413493" lon="12.159165913184898"><ele>121.0</ele><time>2026-04-11T09:06:50.999Z</time></trkpt><trkpt lat="41.974806801352514" lon="12.159074329849688"><ele>120.99999999999999</ele><time>2026-04-11T09:06:55.999Z</time></trkpt><trkpt lat="41.974771596574996" lon="12.158986553593273"><ele>121.0</ele><time>2026-04-11T09:07:00.999Z</time></trkpt><trkpt lat="41.97473393757365" lon="12.158903874827795"><ele>121.0</ele><time>2026-04-11T09:07:05.999Z</time></trkpt><trkpt lat="41.974677024159305" lon="12.158971634362032"><ele>121.0</ele><time>2026-04-11T09:07:09.999Z</time></trkpt><trkpt lat="41.97468844073108" lon="12.159060641379718"><ele>120.99999999999999</ele><time>2026-04-11T09:07:13.999Z</time></trkpt><trkpt lat="41.97470435334934" lon="12.159155074414164"><ele>121.0</ele><time>2026-04-11T09:07:18.999Z</time></trkpt><trkpt lat="41.97468938152032" lon="12.159242492934437"><ele>121.0</ele><time>2026-04-11T09:07:23.999Z</time></trkpt><trkpt lat="41.97466723391203" lon="12.159330016449024"><ele>120.99999999999999</ele><time>2026-04-11T09:07:29.999Z</time></trkpt><trkpt lat="41.97462974117233" lon="12.159414518275488"><ele>121.0</ele><time>2026-04-11T09:07:35.999Z</time></trkpt><trkpt lat="41.97458819580327" lon="12.159479211743793"><ele>121.0</ele><time>2026-04-11T09:07:41.999Z</time></trkpt><trkpt lat="41.97453614836391" lon="12.15956522043482"><ele>121.0</ele><time>2026-04-11T09:07:47.999Z</time></trkpt><trkpt lat="41.97449468296485" lon="12.159643097713868"><ele>120.99999999999999</ele><time>2026-04-11T09:07:53.999Z</time></trkpt><trkpt lat="41.97445020814898" lon="12.159711004605272"><ele>121.0</ele><time>2026-04-11T09:07:58.999Z</time></trkpt><trkpt lat="41.97438782205051" lon="12.159697811452364"><ele>121.0</ele><time>2026-04-11T09:08:05.999Z</time></trkpt><trkpt lat="41.974346030789064" lon="12.15960173910518"><ele>120.99999999999999</ele><time>2026-04-11T09:08:11.999Z</time></trkpt><trkpt lat="41.974356031020335" lon="12.15950866016809"><ele>121.0</ele><time>2026-04-11T09:08:17.999Z</time></trkpt><trkpt lat="41.97438269487905" lon="12.159411844274523"><ele>121.0</ele><time>2026-04-11T09:08:22.999Z</time></trkpt><trkpt lat="41.97444698522617" lon="12.159379897734091"><ele>121.0</ele><time>2026-04-11T09:08:27.999Z</time></trkpt><trkpt lat="41.97451022839266" lon="12.159386513584723"><ele>120.99999999999999</ele><time>2026-04-11T09:08:32.999Z</time></trkpt><trkpt lat="41.97454654684586" lon="12.159295038558993"><ele>121.0</ele><time>2026-04-11T09:08:38.999Z</time></trkpt><trkpt lat="41.974554776595596" lon="12.159209570154779"><ele>121.0</ele><time>2026-04-11T09:08:43.999Z</time></trkpt><trkpt lat="41.97457303526734" lon="12.15912180510098"><ele>120.99999999999999</ele><time>2026-04-11T09:08:48.999Z</time></trkpt><trkpt lat="41.97459245396796" lon="12.159036559600674"><ele>121.0</ele><time>2026-04-11T09:08:53.999Z</time></trkpt><trkpt lat="41.974612968156585" lon="12.15893502965671"><ele>121.0</ele><time>2026-04-11T09:08:59.999Z</time></trkpt><trkpt lat="41.97465038422059" lon="12.158843330648597"><ele>119.71428571428571</ele><time>2026-04-11T09:09:04.999Z</time></trkpt><trkpt lat="41.97468255456007" lon="12.158739500829476"><ele>118.42857142857142</ele><time>2026-04-11T09:09:11.999Z</time></trkpt><trkpt lat="41.974721051476386" lon="12.158666902899782"><ele>117.14285714285714</ele><time>2026-04-11T09:09:16.999Z</time></trkpt><trkpt lat="41.97474663702082" lon="12.15858061759208"><ele>115.85714285714286</ele><time>2026-04-11T09:09:21.999Z</time></trkpt><trkpt lat="41.974779850775626" lon="12.158488197706083"><ele>114.57142857142857</ele><time>2026-04-11T09:09:27.999Z</time></trkpt><trkpt lat="41.974794673303464" lon="12.158397721677822"><ele>113.28571428571428</ele><time>2026-04-11T09:09:34Z</time></trkpt><trkpt lat="41.97479383631861" lon="12.158287802963496"><ele>112.0</ele><time>2026-04-11T09:09:46Z</time></trkpt><trkpt lat="41.97479501473435" lon="12.158193606314278"><ele>112.0</ele><time>2026-04-11T09:09:53Z</time></trkpt><trkpt lat="41.97474380269021" lon="12.15812973267532"><ele>112.0</ele><time>2026-04-11T09:09:57Z</time></trkpt><trkpt lat="41.97467918173449" lon="12.158133955983665"><ele>112.0</ele><time>2026-04-11T09:10:01Z</time></trkpt><trkpt lat="41.97463744664984" lon="12.158219635880094"><ele>112.0</ele><time>2026-04-11T09:10:06Z</time></trkpt><trkpt lat="41.97461683409578" lon="12.158311077695457"><ele>112.0</ele><time>2026-04-11T09:10:11Z</time></trkpt><trkpt lat="41.974607904767346" lon="12.15839644834284"><ele>112.0</ele><time>2026-04-11T09:10:17Z</time></trkpt><trkpt lat="41.974593105474945" lon="12.158484250946179"><ele>112.0</ele><time>2026-04-11T09:10:23Z</time></trkpt><trkpt lat="41.9745270772616" lon="12.158497452160848"><ele>112.0</ele><time>2026-04-11T09:10:31Z</time></trkpt><trkpt lat="41.97453049969681" lon="12.158409558558455"><ele>112.0</ele><time>2026-04-11T09:10:36Z</time></trkpt><trkpt lat="41.97453902286437" lon="12.158318590686337"><ele>112.0</ele><time>2026-04-11T09:10:42Z</time></trkpt><trkpt lat="41.97450229505036" lon="12.158241391597697"><ele>112.0</ele><time>2026-04-11T09:10:47Z</time></trkpt><trkpt lat="41.97445270732831" lon="12.158187413654286"><ele>112.0</ele><time>2026-04-11T09:10:52Z</time></trkpt><trkpt lat="41.97439871242518" lon="12.158139679706386"><ele>112.0</ele><time>2026-04-11T09:10:57Z</time></trkpt><trkpt lat="41.97433372891763" lon="12.1580952337074"><ele>112.0</ele><time>2026-04-11T09:11:02Z</time></trkpt><trkpt lat="41.97426794930471" lon="12.158046622264058"><ele>112.0</ele><time>2026-04-11T09:11:07.999Z</time></trkpt><trkpt lat="41.97419594515837" lon="12.15803685918158"><ele>112.0</ele><time>2026-04-11T09:11:12.999Z</time></trkpt><trkpt lat="41.97412041758073" lon="12.158075323482496"><ele>112.0</ele><time>2026-04-11T09:11:18.999Z</time></trkpt><trkpt lat="41.97408968891214" lon="12.158149282689463"><ele>112.0</ele><time>2026-04-11T09:11:26.999Z</time></trkpt><trkpt lat="41.97409669593927" lon="12.158239090795952"><ele>112.0</ele><time>2026-04-11T09:11:33Z</time></trkpt><trkpt lat="41.974080705809904" lon="12.158335505600553"><ele>112.0</ele><time>2026-04-11T09:11:39Z</time></trkpt><trkpt lat="41.974011635105434" lon="12.158338793388511"><ele>112.0</ele><time>2026-04-11T09:14:45Z</time></trkpt><trkpt lat="41.97396650416822" lon="12.158264238049243"><ele>110.71428571428571</ele><time>2026-04-11T09:14:49Z</time></trkpt><trkpt lat="41.97393454320706" lon="12.15815300476646"><ele>109.42857142857143</ele><time>2026-04-11T09:14:53Z</time></trkpt><trkpt lat="41.97390674658042" lon="12.158063945268724"><ele>108.14285714285714</ele><time>2026-04-11T09:14:59Z</time></trkpt><trkpt lat="41.97387118143695" lon="12.157972949305332"><ele>106.85714285714286</ele><time>2026-04-11T09:15:04Z</time></trkpt><trkpt lat="41.97382891490518" lon="12.157905610638124"><ele>105.57142857142857</ele><time>2026-04-11T09:15:08Z</time></trkpt><trkpt lat="41.97377035135791" lon="12.1578667849125"><ele>104.28571428571428</ele><time>2026-04-11T09:15:12Z</time></trkpt><trkpt lat="41.97369700113316" lon="12.15789550861225"><ele>103.0</ele><time>2026-04-11T09:15:17Z</time></trkpt><trkpt lat="41.973630898985135" lon="12.157947127039145"><ele>102.99999999999999</ele><time>2026-04-11T09:15:22Z</time></trkpt><trkpt lat="41.97358863412538" lon="12.158025635993445"><ele>103.0</ele><time>2026-04-11T09:15:27Z</time></trkpt><trkpt lat="41.97352455075958" lon="12.158054477281558"><ele>103.0</ele><time>2026-04-11T09:15:32Z</time></trkpt><trkpt lat="41.97346817497128" lon="12.157987386207086"><ele>103.0</ele><time>2026-04-11T09:15:37Z</time></trkpt><trkpt lat="41.973415571759915" lon="12.157935524571055"><ele>103.0</ele><time>2026-04-11T09:15:42Z</time></trkpt><trkpt lat="41.97335189418061" lon="12.157899055703107"><ele>102.99999999999999</ele><time>2026-04-11T09:15:47Z</time></trkpt><trkpt lat="41.97328698725477" lon="12.157866326871709"><ele>103.0</ele><time>2026-04-11T09:15:52Z</time></trkpt><trkpt lat="41.973221189128076" lon="12.157832487024043"><ele>102.71428571428571</ele><time>2026-04-11T09:15:57Z</time></trkpt><trkpt lat="41.97315276496126" lon="12.157836863004315"><ele>102.42857142857143</ele><time>2026-04-11T09:16:03Z</time></trkpt><trkpt lat="41.97310750422018" lon="12.157915397878185"><ele>102.14285714285714</ele><time>2026-04-11T09:16:08Z</time></trkpt><trkpt lat="41.97307218098352" lon="12.158000526571977"><ele>101.85714285714286</ele><time>2026-04-11T09:16:14Z</time></trkpt><trkpt lat="41.97304735814357" lon="12.158081101741574"><ele>101.57142857142857</ele><time>2026-04-11T09:16:25Z</time></trkpt><trkpt lat="41.972989463006826" lon="12.158126999065475"><ele>101.28571428571428</ele><time>2026-04-11T09:16:34Z</time></trkpt><trkpt lat="41.97293714257964" lon="12.15818735676936"><ele>101.0</ele><time>2026-04-11T09:16:39Z</time></trkpt><trkpt lat="41.97290160716175" lon="12.15825948829621"><ele>101.85714285714286</ele><time>2026-04-11T09:16:44Z</time></trkpt><trkpt lat="41.972869971360005" lon="12.158337029210143"><ele>102.71428571428571</ele><time>2026-04-11T09:16:48Z</time></trkpt><trkpt lat="41.97284140959766" lon="12.158417993738253"><ele>103.57142857142858</ele><time>2026-04-11T09:16:53Z</time></trkpt><trkpt lat="41.97284871474308" lon="12.158516901365578"><ele>104.42857142857143</ele><time>2026-04-11T09:16:59Z</time></trkpt><trkpt lat="41.97288271057671" lon="12.158589137870594"><ele>105.28571428571429</ele><time>2026-04-11T09:17:04Z</time></trkpt><trkpt lat="41.97295390491384" lon="12.158606734174887"><ele>106.14285714285715</ele><time>2026-04-11T09:17:09Z</time></trkpt><trkpt lat="41.97301158127818" lon="12.158546968375182"><ele>107.0</ele><time>2026-04-11T09:17:14Z</time></trkpt><trkpt lat="41.97304075546281" lon="12.158458368038092"><ele>107.00000000000001</ele><time>2026-04-11T09:17:20Z</time></trkpt><trkpt lat="41.973071573174174" lon="12.158369532424322"><ele>107.0</ele><time>2026-04-11T09:17:26Z</time></trkpt><trkpt lat="41.973085312383716" lon="12.158285119750577"><ele>107.0</ele><time>2026-04-11T09:17:32Z</time></trkpt><trkpt lat="41.97312624395449" lon="12.158213031164044"><ele>107.0</ele><time>2026-04-11T09:17:37Z</time></trkpt><trkpt lat="41.973199334780396" lon="12.158210142669027"><ele>107.0</ele><time>2026-04-11T09:17:42.999Z</time></trkpt><trkpt lat="41.973271649098606" lon="12.158240861415761"><ele>107.00000000000001</ele><time>2026-04-11T09:17:47.999Z</time></trkpt><trkpt lat="41.97333407062477" lon="12.158264417991587"><ele>107.0</ele><time>2026-04-11T09:17:53Z</time></trkpt><trkpt lat="41.97341025498186" lon="12.15828090405111"><ele>107.71428571428572</ele><time>2026-04-11T09:17:59Z</time></trkpt><trkpt lat="41.97347971557811" lon="12.15827213106192"><ele>108.42857142857143</ele><time>2026-04-11T09:18:04Z</time></trkpt><trkpt lat="41.973552347845725" lon="12.15824073906349"><ele>109.14285714285714</ele><time>2026-04-11T09:18:12Z</time></trkpt><trkpt lat="41.97361922560378" lon="12.158228334660572"><ele>109.85714285714286</ele><time>2026-04-11T09:18:16Z</time></trkpt><trkpt lat="41.9736825102356" lon="12.15823052522062"><ele>110.57142857142857</ele><time>2026-04-11T09:18:20Z</time></trkpt><trkpt lat="41.97374830784459" lon="12.158239542755405"><ele>111.28571428571429</ele><time>2026-04-11T09:18:26Z</time></trkpt><trkpt lat="41.9738137410127" lon="12.158280599922703"><ele>112.0</ele><time>2026-04-11T09:18:32Z</time></trkpt><trkpt lat="41.97387840469645" lon="12.15831156166376"><ele>112.0</ele><time>2026-04-11T09:18:39Z</time></trkpt><trkpt lat="41.97393473379415" lon="12.158369278173996"><ele>112.0</ele><time>2026-04-11T09:18:46Z</time></trkpt><trkpt lat="41.97397605376641" lon="12.158443145485242"><ele>112.0</ele><time>2026-04-11T09:18:53Z</time></trkpt><trkpt lat="41.97403631600152" lon="12.15848741461149"><ele>112.0</ele><time>2026-04-11T09:18:59Z</time></trkpt><trkpt lat="41.974108423217224" lon="12.158522343744005"><ele>112.0</ele><time>2026-04-11T09:19:06Z</time></trkpt><trkpt lat="41.97417687967917" lon="12.158542907606073"><ele>112.0</ele><time>2026-04-11T09:19:12Z</time></trkpt><trkpt lat="41.97424747493253" lon="12.158533966798142"><ele>112.0</ele><time>2026-04-11T09:19:30Z</time></trkpt><trkpt lat="41.974272668102316" lon="12.158446248717768"><ele>112.0</ele><time>2026-04-11T09:19:36Z</time></trkpt><trkpt lat="41.97427998075663" lon="12.158351566247495"><ele>112.0</ele><time>2026-04-11T09:19:40.999Z</time></trkpt><trkpt lat="41.974305686525994" lon="12.158265222979509"><ele>112.0</ele><time>2026-04-11T09:19:45.999Z</time></trkpt><trkpt lat="41.97437360557169" lon="12.158227725910011"><ele>112.0</ele><time>2026-04-11T09:19:51.999Z</time></trkpt><trkpt lat="41.97438806292114" lon="12.158312025955098"><ele>112.0</ele><time>2026-04-11T09:19:58Z</time></trkpt><trkpt lat="41.97436258239134" lon="12.158396680486868"><ele>112.0</ele><time>2026-04-11T09:20:04Z</time></trkpt><trkpt lat="41.97435647038561" lon="12.158501085546533"><ele>112.0</ele><time>2026-04-11T09:20:10Z</time></trkpt><trkpt lat="41.974378126094734" lon="12.158589183426121"><ele>112.0</ele><time>2026-04-11T09:20:17Z</time></trkpt><trkpt lat="41.97445107775135" lon="12.15859298946759"><ele>112.0</ele><time>2026-04-11T09:20:23Z</time></trkpt><trkpt lat="41.97452470890725" lon="12.158618090166334"><ele>112.0</ele><time>2026-04-11T09:20:29Z</time></trkpt><trkpt lat="41.974577579422586" lon="12.158670837419969"><ele>112.0</ele><time>2026-04-11T09:20:34Z</time></trkpt><trkpt lat="41.97458448274583" lon="12.158763598456817"><ele>112.0</ele><time>2026-04-11T09:20:40Z</time></trkpt><trkpt lat="41.974578202268994" lon="12.158856166413567"><ele>112.0</ele><time>2026-04-11T09:20:45Z</time></trkpt><trkpt lat="41.97454650728363" lon="12.158942849981123"><ele>112.0</ele><time>2026-04-11T09:20:51Z</time></trkpt><trkpt lat="41.97452648926282" lon="12.159030935659636"><ele>112.0</ele><time>2026-04-11T09:20:56Z</time></trkpt><trkpt lat="41.97448761462797" lon="12.159100937811893"><ele>112.0</ele><time>2026-04-11T09:21:02Z</time></trkpt><trkpt lat="41.97442518022337" lon="12.159085838803573"><ele>112.0</ele><time>2026-04-11T09:21:08Z</time></trkpt><trkpt lat="41.974413426563906" lon="12.159000768653854"><ele>112.0</ele><time>2026-04-11T09:21:13Z</time></trkpt><trkpt lat="41.97442412375578" lon="12.158908547161065"><ele>112.0</ele><time>2026-04-11T09:21:18Z</time></trkpt><trkpt lat="41.97444797551752" lon="12.158822204628699"><ele>112.0</ele><time>2026-04-11T09:21:23Z</time></trkpt><trkpt lat="41.97443438153834" lon="12.158738945623996"><ele>112.0</ele><time>2026-04-11T09:21:28Z</time></trkpt><trkpt lat="41.97436044038836" lon="12.158714836530804"><ele>112.0</ele><time>2026-04-11T09:21:33Z</time></trkpt><trkpt lat="41.974290511332704" lon="12.15871555995801"><ele>112.0</ele><time>2026-04-11T09:21:38Z</time></trkpt><trkpt lat="41.9742259098484" lon="12.158727788057478"><ele>112.0</ele><time>2026-04-11T09:21:43Z</time></trkpt><trkpt lat="41.974159167646654" lon="12.158715814016178"><ele>112.0</ele><time>2026-04-11T09:21:48.999Z</time></trkpt><trkpt lat="41.97409605764133" lon="12.158661176904833"><ele>112.0</ele><time>2026-04-11T09:21:57.999Z</time></trkpt><trkpt lat="41.97403856928349" lon="12.15861205399622"><ele>112.0</ele><time>2026-04-11T09:22:03Z</time></trkpt><trkpt lat="41.973985208569964" lon="12.15855452455902"><ele>112.0</ele><time>2026-04-11T09:22:08Z</time></trkpt><trkpt lat="41.97391761408791" lon="12.158517818708146"><ele>112.0</ele><time>2026-04-11T09:22:13Z</time></trkpt><trkpt lat="41.97385377621827" lon="12.158553260127414"><ele>112.0</ele><time>2026-04-11T09:22:18Z</time></trkpt><trkpt lat="41.97388603306554" lon="12.158626080969983"><ele>112.0</ele><time>2026-04-11T09:22:22Z</time></trkpt><trkpt lat="41.97394492514257" lon="12.158665466566994"><ele>112.0</ele><time>2026-04-11T09:22:45Z</time></trkpt><trkpt lat="41.973999249222935" lon="12.158737419230626"><ele>112.0</ele><time>2026-04-11T09:22:51Z</time></trkpt><trkpt lat="41.974059529588786" lon="12.158776739778363"><ele>112.0</ele><time>2026-04-11T09:22:57Z</time></trkpt><trkpt lat="41.974123777750805" lon="12.158805724923722"><ele>112.0</ele><time>2026-04-11T09:23:02Z</time></trkpt><trkpt lat="41.97420224174054" lon="12.158808465252454"><ele>112.0</ele><time>2026-04-11T09:23:08Z</time></trkpt><trkpt lat="41.97427071864403" lon="12.158862358223043"><ele>112.0</ele><time>2026-04-11T09:23:14Z</time></trkpt><trkpt lat="41.974285608662264" lon="12.15895506512161"><ele>112.0</ele><time>2026-04-11T09:23:20Z</time></trkpt><trkpt lat="41.97427644018749" lon="12.159045539410226"><ele>112.0</ele><time>2026-04-11T09:23:25Z</time></trkpt><trkpt lat="41.97425452214798" lon="12.159125599392326"><ele>112.0</ele><time>2026-04-11T09:23:30Z</time></trkpt><trkpt lat="41.97420413116292" lon="12.159035580835397"><ele>112.0</ele><time>2026-04-11T09:23:37Z</time></trkpt><trkpt lat="41.974204369830275" lon="12.15893396749357"><ele>112.0</ele><time>2026-04-11T09:23:43Z</time></trkpt><trkpt lat="41.97413875846531" lon="12.15890568091298"><ele>112.0</ele><time>2026-04-11T09:23:49Z</time></trkpt><trkpt lat="41.9740702956672" lon="12.15891895157837"><ele>112.0</ele><time>2026-04-11T09:23:54Z</time></trkpt><trkpt lat="41.97400383731658" lon="12.158913489937701"><ele>112.0</ele><time>2026-04-11T09:23:58.999Z</time></trkpt><trkpt lat="41.97393720202579" lon="12.158879923182786"><ele>112.0</ele><time>2026-04-11T09:24:03.999Z</time></trkpt><trkpt lat="41.97388554480342" lon="12.158818068857796"><ele>112.0</ele><time>2026-04-11T09:24:09Z</time></trkpt><trkpt lat="41.97383008770329" lon="12.158759074140457"><ele>112.0</ele><time>2026-04-11T09:24:14Z</time></trkpt><trkpt lat="41.973782284503784" lon="12.158689497583346"><ele>112.0</ele><time>2026-04-11T09:24:20Z</time></trkpt><trkpt lat="41.97373682632526" lon="12.158614512617516"><ele>112.0</ele><time>2026-04-11T09:24:26Z</time></trkpt><trkpt lat="41.97371759686356" lon="12.158530335791383"><ele>112.0</ele><time>2026-04-11T09:24:41Z</time></trkpt><trkpt lat="41.97366862100193" lon="12.158465095707799"><ele>112.0</ele><time>2026-04-11T09:24:46Z</time></trkpt><trkpt lat="41.97359688079613" lon="12.15845146593791"><ele>112.0</ele><time>2026-04-11T09:24:51Z</time></trkpt><trkpt lat="41.973536855574174" lon="12.15848106890607"><ele>112.0</ele><time>2026-04-11T09:24:56Z</time></trkpt><trkpt lat="41.97350503327061" lon="12.158561821840737"><ele>112.0</ele><time>2026-04-11T09:25:03Z</time></trkpt><trkpt lat="41.97348965731709" lon="12.158667299277337"><ele>112.0</ele><time>2026-04-11T09:25:08Z</time></trkpt><trkpt lat="41.97348392144437" lon="12.158758155776267"><ele>112.0</ele><time>2026-04-11T09:25:13Z</time></trkpt><trkpt lat="41.9735124185278" lon="12.158836708550977"><ele>112.0</ele><time>2026-04-11T09:25:17Z</time></trkpt><trkpt lat="41.973560085167236" lon="12.158912184261107"><ele>112.0</ele><time>2026-04-11T09:25:22Z</time></trkpt><trkpt lat="41.97360981685823" lon="12.15898090938722"><ele>112.0</ele><time>2026-04-11T09:25:27Z</time></trkpt><trkpt lat="41.97366666277854" lon="12.158916561701428"><ele>112.0</ele><time>2026-04-11T09:25:31Z</time></trkpt><trkpt lat="41.9737141618387" lon="12.158847903242005"><ele>112.0</ele><time>2026-04-11T09:25:36Z</time></trkpt><trkpt lat="41.97377894233289" lon="12.158857068529201"><ele>112.0</ele><time>2026-04-11T09:25:41Z</time></trkpt><trkpt lat="41.9738395093787" lon="12.15889821070987"><ele>112.0</ele><time>2026-04-11T09:25:47Z</time></trkpt><trkpt lat="41.973894947386164" lon="12.158952329351205"><ele>112.0</ele><time>2026-04-11T09:25:52Z</time></trkpt><trkpt lat="41.97395344168117" lon="12.159007297202907"><ele>112.0</ele><time>2026-04-11T09:25:57Z</time></trkpt><trkpt lat="41.9740199230725" lon="12.159060384420503"><ele>112.0</ele><time>2026-04-11T09:26:04.999Z</time></trkpt><trkpt lat="41.97408415767181" lon="12.159044087700504"><ele>112.0</ele><time>2026-04-11T09:26:09.999Z</time></trkpt><trkpt lat="41.974099565515274" lon="12.159136709000105"><ele>112.0</ele><time>2026-04-11T09:26:17Z</time></trkpt><trkpt lat="41.97406026361899" lon="12.159205295215889"><ele>112.0</ele><time>2026-04-11T09:26:23Z</time></trkpt><trkpt lat="41.97399876820253" lon="12.15918680618349"><ele>112.85714285714286</ele><time>2026-04-11T09:26:28Z</time></trkpt><trkpt lat="41.973925243311825" lon="12.1591848598764"><ele>113.71428571428572</ele><time>2026-04-11T09:26:35Z</time></trkpt><trkpt lat="41.973853663018375" lon="12.159196599161596"><ele>114.57142857142857</ele><time>2026-04-11T09:26:40Z</time></trkpt><trkpt lat="41.97378780782242" lon="12.15920267325078"><ele>115.42857142857143</ele><time>2026-04-11T09:26:45Z</time></trkpt><trkpt lat="41.97372515339215" lon="12.159225034310507"><ele>116.28571428571429</ele><time>2026-04-11T09:26:50Z</time></trkpt><trkpt lat="41.973658803933084" lon="12.15921783865052"><ele>117.14285714285714</ele><time>2026-04-11T09:26:55Z</time></trkpt><trkpt lat="41.97358785085292" lon="12.159193863335037"><ele>118.0</ele><time>2026-04-11T09:27:00Z</time></trkpt><trkpt lat="41.973541553881844" lon="12.159259530427926"><ele>118.0</ele><time>2026-04-11T09:27:04Z</time></trkpt><trkpt lat="41.97358231822655" lon="12.159331868816807"><ele>118.0</ele><time>2026-04-11T09:27:08Z</time></trkpt><trkpt lat="41.973643496246524" lon="12.159379332817737"><ele>118.0</ele><time>2026-04-11T09:27:13Z</time></trkpt><trkpt lat="41.97368914671317" lon="12.159442301413348"><ele>118.0</ele><time>2026-04-11T09:27:18Z</time></trkpt><trkpt lat="41.973661985174815" lon="12.15952548711741"><ele>118.0</ele><time>2026-04-11T09:27:24Z</time></trkpt><trkpt lat="41.973589311966094" lon="12.159552563080995"><ele>118.0</ele><time>2026-04-11T09:27:30Z</time></trkpt><trkpt lat="41.97352628856601" lon="12.159573320372026"><ele>118.0</ele><time>2026-04-11T09:27:35Z</time></trkpt><trkpt lat="41.97347231418864" lon="12.159637185631322"><ele>118.0</ele><time>2026-04-11T09:27:40Z</time></trkpt><trkpt lat="41.9734500860588" lon="12.159732648348118"><ele>118.0</ele><time>2026-04-11T09:27:46Z</time></trkpt><trkpt lat="41.97347817685904" lon="12.159817944246843"><ele>118.0</ele><time>2026-04-11T09:27:51Z</time></trkpt><trkpt lat="41.97353112157204" lon="12.159884432726981"><ele>118.0</ele><time>2026-04-11T09:27:57Z</time></trkpt><trkpt lat="41.973597777259855" lon="12.15992116218579"><ele>118.0</ele><time>2026-04-11T09:28:03Z</time></trkpt><trkpt lat="41.97368363893232" lon="12.15993180850797"><ele>118.0</ele><time>2026-04-11T09:28:08.999Z</time></trkpt><trkpt lat="41.97374715613631" lon="12.15988981699103"><ele>118.0</ele><time>2026-04-11T09:28:14.999Z</time></trkpt><trkpt lat="41.97380682718939" lon="12.159835523613866"><ele>118.0</ele><time>2026-04-11T09:28:20Z</time></trkpt><trkpt lat="41.97384245161222" lon="12.159745361184017"><ele>118.0</ele><time>2026-04-11T09:28:25Z</time></trkpt><trkpt lat="41.97386934542043" lon="12.159660649514077"><ele>118.0</ele><time>2026-04-11T09:28:30Z</time></trkpt><trkpt lat="41.97386422783105" lon="12.159573324122912"><ele>118.0</ele><time>2026-04-11T09:28:35Z</time></trkpt><trkpt lat="41.97382120527717" lon="12.159494564805156"><ele>118.0</ele><time>2026-04-11T09:28:41Z</time></trkpt><trkpt lat="41.97383850331258" lon="12.159409662849441"><ele>118.0</ele><time>2026-04-11T09:28:47Z</time></trkpt><trkpt lat="41.9738952095646" lon="12.15946412528771"><ele>118.0</ele><time>2026-04-11T09:28:54Z</time></trkpt><trkpt lat="41.973954273924456" lon="12.159494267674413"><ele>118.0</ele><time>2026-04-11T09:29:01Z</time></trkpt><trkpt lat="41.974011978214264" lon="12.159457140842209"><ele>118.0</ele><time>2026-04-11T09:29:06Z</time></trkpt><trkpt lat="41.97402472107792" lon="12.1593646309388"><ele>118.0</ele><time>2026-04-11T09:29:12Z</time></trkpt><trkpt lat="41.97406760779346" lon="12.159296466021576"><ele>118.0</ele><time>2026-04-11T09:29:17Z</time></trkpt><trkpt lat="41.97413262280253" lon="12.159283400215196"><ele>118.0</ele><time>2026-04-11T09:29:22Z</time></trkpt><trkpt lat="41.97419808013049" lon="12.159273206540307"><ele>118.0</ele><time>2026-04-11T09:29:27Z</time></trkpt><trkpt lat="41.97426148354212" lon="12.159248071717107"><ele>118.0</ele><time>2026-04-11T09:29:34Z</time></trkpt><trkpt lat="41.974305038690886" lon="12.159311725788445"><ele>118.0</ele><time>2026-04-11T09:29:39Z</time></trkpt><trkpt lat="41.97431760243576" lon="12.15940783717135"><ele>118.0</ele><time>2026-04-11T09:29:45Z</time></trkpt><trkpt lat="41.97424369548489" lon="12.159403649955113"><ele>118.0</ele><time>2026-04-11T09:29:52Z</time></trkpt><trkpt lat="41.97418756083206" lon="12.159350127178747"><ele>118.0</ele><time>2026-04-11T09:29:58Z</time></trkpt><trkpt lat="41.97413812297097" lon="12.159422147654476"><ele>118.0</ele><time>2026-04-11T09:30:03Z</time></trkpt><trkpt lat="41.974130815119885" lon="12.159520286591649"><ele>118.0</ele><time>2026-04-11T09:30:10Z</time></trkpt><trkpt lat="41.97406532461054" lon="12.159587900880329"><ele>118.0</ele><time>2026-04-11T09:30:36Z</time></trkpt><trkpt lat="41.974024797104995" lon="12.159662764072799"><ele>118.0</ele><time>2026-04-11T09:30:42Z</time></trkpt><trkpt lat="41.973970920443115" lon="12.159732885348959"><ele>118.0</ele><time>2026-04-11T09:30:48Z</time></trkpt><trkpt lat="41.97391507333187" lon="12.15979378968684"><ele>118.0</ele><time>2026-04-11T09:30:53Z</time></trkpt><trkpt lat="41.97390828454419" lon="12.159882446270991"><ele>118.0</ele><time>2026-04-11T09:30:58Z</time></trkpt><trkpt lat="41.97396978227627" lon="12.159904638082937"><ele>118.0</ele><time>2026-04-11T09:31:04Z</time></trkpt><trkpt lat="41.97400930004561" lon="12.159819412961836"><ele>118.0</ele><time>2026-04-11T09:31:09Z</time></trkpt><trkpt lat="41.974031029444475" lon="12.159737914789622"><ele>118.0</ele><time>2026-04-11T09:31:14Z</time></trkpt><trkpt lat="41.97407667511868" lon="12.159670029961521"><ele>118.0</ele><time>2026-04-11T09:31:19Z</time></trkpt><trkpt lat="41.97414505930266" lon="12.159652273054153"><ele>118.0</ele><time>2026-04-11T09:31:24Z</time></trkpt><trkpt lat="41.97421286130414" lon="12.159660294108905"><ele>118.0</ele><time>2026-04-11T09:31:30Z</time></trkpt><trkpt lat="41.974271649763686" lon="12.159710680993916"><ele>118.0</ele><time>2026-04-11T09:31:35Z</time></trkpt><trkpt lat="41.97428949955593" lon="12.159793599457576"><ele>118.0</ele><time>2026-04-11T09:31:40Z</time></trkpt><trkpt lat="41.97422564968719" lon="12.1597989436932"><ele>118.0</ele><time>2026-04-11T09:31:45Z</time></trkpt><trkpt lat="41.974145219372765" lon="12.159780259827047"><ele>118.0</ele><time>2026-04-11T09:31:51Z</time></trkpt><trkpt lat="41.97411777037221" lon="12.159861949211532"><ele>118.0</ele><time>2026-04-11T09:31:56Z</time></trkpt><trkpt lat="41.97409338137918" lon="12.159956778549029"><ele>123.0</ele><time>2026-04-11T09:32:03Z</time></trkpt></trkseg></trk></gpx>